createdAt,value
2023-04-27T00:02:14.102Z,11.20
2023-04-27T00:04:41.699Z,13.52
2023-04-27T00:07:09.332Z,13.40
2023-04-27T00:09:36.239Z,15.27
2023-04-27T00:12:03.175Z,17.67
2023-04-27T00:14:30.040Z,17.93
2023-04-27T00:16:56.945Z,17.98
2023-04-27T00:19:26.242Z,15.83
2023-04-27T00:21:53.142Z,17.27
2023-04-27T00:24:19.952Z,13.15
2023-04-27T00:26:46.793Z,16.53
2023-04-27T00:29:13.921Z,15.93
2023-04-27T00:31:41.089Z,22.57
2023-04-27T00:34:07.957Z,18.95
2023-04-27T00:36:36.218Z,18.00
2023-04-27T00:39:04.367Z,18.75
2023-04-27T00:41:31.815Z,18.55
2023-04-27T00:43:58.804Z,20.65
2023-04-27T00:46:26.456Z,17.27
2023-04-27T00:48:53.617Z,20.17
2023-04-27T00:51:20.860Z,17.70
2023-04-27T00:53:51.143Z,17.50
2023-04-27T00:56:17.969Z,25.80
2023-04-27T00:58:44.838Z,18.17
2023-04-27T01:01:12.856Z,17.52
2023-04-27T01:03:40.106Z,19.52
2023-04-27T01:06:07.773Z,14.47
2023-04-27T01:08:34.696Z,22.52
2023-04-27T01:11:03.287Z,35.00
2023-04-27T01:13:30.146Z,18.70
2023-04-27T01:15:56.999Z,20.00
2023-04-27T01:18:24.439Z,31.05
2023-04-27T01:20:51.252Z,15.30
2023-04-27T01:23:19.544Z,17.13
2023-04-27T01:25:46.356Z,16.77
2023-04-27T01:28:13.348Z,20.67
2023-04-27T01:30:40.153Z,13.77
2023-04-27T01:33:07.140Z,15.38
2023-04-27T01:35:34.043Z,21.38
2023-04-27T01:38:01.451Z,20.83
2023-04-27T01:40:29.743Z,16.23
2023-04-27T01:42:56.755Z,23.03
2023-04-27T01:45:23.615Z,16.45
2023-04-27T01:47:51.809Z,16.13
2023-04-27T01:50:18.904Z,17.77
2023-04-27T01:52:46.679Z,20.97
2023-04-27T01:55:13.692Z,21.70
2023-04-27T01:57:42.002Z,27.40
2023-04-27T02:00:09.835Z,26.60
2023-04-27T02:02:36.975Z,16.67
2023-04-27T02:05:04.465Z,20.90
2023-04-27T02:07:31.339Z,18.27
2023-04-27T02:09:58.219Z,24.60
2023-04-27T02:12:25.164Z,21.57
2023-04-27T02:14:53.459Z,29.73
2023-04-27T02:17:20.426Z,27.73
2023-04-27T02:19:47.274Z,20.83
2023-04-27T02:22:14.173Z,19.17
2023-04-27T02:24:41.245Z,20.13
2023-04-27T02:27:08.148Z,21.50
2023-04-27T02:29:39.047Z,16.50
2023-04-27T02:32:07.961Z,20.20
2023-04-27T02:34:34.850Z,21.80
2023-04-27T02:37:01.703Z,25.20
2023-04-27T02:39:28.573Z,18.07
2023-04-27T02:41:55.384Z,16.97
2023-04-27T02:44:22.314Z,19.80
2023-04-27T02:46:50.236Z,23.20
2023-04-27T02:49:18.582Z,23.47
2023-04-27T02:51:45.530Z,19.30
2023-04-27T02:54:12.445Z,24.20
2023-04-27T02:56:39.244Z,22.40
2023-04-27T02:59:06.108Z,32.00
2023-04-27T03:01:32.987Z,17.83
2023-04-27T03:03:59.983Z,17.87
2023-04-27T03:06:29.055Z,18.03
2023-04-27T03:08:55.900Z,21.50
2023-04-27T03:11:22.754Z,24.30
2023-04-27T03:13:49.608Z,22.93
2023-04-27T03:16:16.488Z,18.37
2023-04-27T03:18:43.331Z,19.50
2023-04-27T03:21:11.405Z,21.50
2023-04-27T03:23:40.404Z,20.67
2023-04-27T03:26:07.812Z,17.23
2023-04-27T03:28:35.160Z,17.77
2023-04-27T03:31:05.236Z,24.37
2023-04-27T03:33:32.117Z,19.20
2023-04-27T03:35:59.479Z,19.67
2023-04-27T03:38:26.655Z,18.70
2023-04-27T03:40:55.057Z,18.67
2023-04-27T03:43:22.395Z,20.27
2023-04-27T03:45:49.504Z,22.33
2023-04-27T03:48:16.806Z,18.50
2023-04-27T03:50:43.789Z,22.40
2023-04-27T03:53:11.549Z,17.17
2023-04-27T03:55:39.190Z,19.93
2023-04-27T03:58:07.625Z,18.20
2023-04-27T04:00:35.966Z,21.40
2023-04-27T04:03:03.383Z,21.83
2023-04-27T04:05:30.940Z,16.90
2023-04-27T04:07:58.047Z,16.07
2023-04-27T04:10:25.443Z,21.60
2023-04-27T04:12:52.635Z,14.27
2023-04-27T04:15:21.202Z,25.53
2023-04-27T04:17:49.308Z,26.57
2023-04-27T04:20:16.814Z,24.80
2023-04-27T04:22:44.261Z,22.60
2023-04-27T04:25:11.695Z,21.70
2023-04-27T04:27:38.689Z,21.00
2023-04-27T04:30:06.911Z,17.43
2023-04-27T04:32:38.009Z,23.60
2023-04-27T04:35:05.604Z,21.80
2023-04-27T04:37:36.737Z,15.77
2023-04-27T04:40:10.713Z,20.27
2023-04-27T04:42:38.062Z,20.30
2023-04-27T04:45:07.104Z,20.77
2023-04-27T04:47:35.435Z,17.97
2023-04-27T04:50:02.466Z,18.00
2023-04-27T04:52:29.622Z,28.13
2023-04-27T04:54:56.500Z,17.33
2023-04-27T04:57:23.431Z,18.43
2023-04-27T04:59:50.919Z,26.00
2023-04-27T05:02:17.841Z,18.53
2023-04-27T05:04:46.409Z,19.27
2023-04-27T05:07:15.135Z,22.20
2023-04-27T05:09:43.020Z,25.60
2023-04-27T05:12:10.225Z,17.77
2023-04-27T05:14:37.082Z,23.63
2023-04-27T05:17:03.931Z,23.70
2023-04-27T05:19:31.579Z,21.57
2023-04-27T05:21:59.935Z,20.50
2023-04-27T05:24:27.026Z,25.57
2023-04-27T05:26:54.976Z,14.57
2023-04-27T05:29:22.363Z,19.33
2023-04-27T05:31:49.420Z,28.67
2023-04-27T05:34:16.540Z,16.95
2023-04-27T05:36:43.528Z,27.70
2023-04-27T05:39:12.086Z,20.45
2023-04-27T05:41:39.260Z,16.93
2023-04-27T05:44:06.885Z,25.75
2023-04-27T05:46:34.883Z,18.80
2023-04-27T05:49:02.903Z,20.70
2023-04-27T05:51:29.991Z,18.80
2023-04-27T05:53:56.898Z,22.02
2023-04-27T05:56:25.346Z,18.30
2023-04-27T05:58:52.297Z,15.93
2023-04-27T06:01:19.302Z,15.30
2023-04-27T06:03:46.850Z,13.70
2023-04-27T06:06:14.001Z,18.45
2023-04-27T06:08:41.352Z,19.52
2023-04-27T06:11:08.336Z,18.65
2023-04-27T06:13:36.616Z,19.42
2023-04-27T06:16:03.751Z,21.33
2023-04-27T06:18:31.800Z,14.50
2023-04-27T06:21:00.236Z,12.85
2023-04-27T06:23:27.312Z,15.30
2023-04-27T06:25:54.221Z,16.63
2023-04-27T06:28:21.058Z,14.60
2023-04-27T06:30:49.298Z,15.82
2023-04-27T06:33:16.303Z,13.82
2023-04-27T06:35:44.574Z,21.02
2023-04-27T06:38:12.743Z,12.13
2023-04-27T06:40:40.370Z,13.45
2023-04-27T06:43:07.391Z,19.80
2023-04-27T06:45:34.300Z,14.60
2023-04-27T06:48:02.717Z,18.98
2023-04-27T06:50:30.529Z,14.82
2023-04-27T06:52:57.366Z,14.77
2023-04-27T06:55:24.349Z,14.70
2023-04-27T06:57:51.260Z,11.25
2023-04-27T07:00:19.062Z,16.67
2023-04-27T07:02:46.303Z,16.15
2023-04-27T07:05:14.744Z,18.52
2023-04-27T07:07:41.701Z,18.13
2023-04-27T07:10:09.352Z,17.65
2023-04-27T07:12:36.492Z,18.10
2023-04-27T07:15:04.490Z,20.88
2023-04-27T07:17:31.565Z,19.75
2023-04-27T07:19:58.538Z,17.70
2023-04-27T07:22:26.860Z,27.65
2023-04-27T07:24:53.733Z,20.00
2023-04-27T07:27:20.586Z,18.45
2023-04-27T07:29:48.235Z,26.20
2023-04-27T07:32:15.231Z,24.15
2023-04-27T07:34:52.565Z,21.25
2023-04-27T07:37:20.990Z,30.67
2023-04-27T07:39:52.115Z,26.33
2023-04-27T07:42:19.118Z,34.60
2023-04-27T07:44:46.020Z,21.77
2023-04-27T07:47:14.063Z,27.52
2023-04-27T07:49:40.959Z,23.90
2023-04-27T07:52:08.562Z,24.08
2023-04-27T07:54:35.472Z,23.60
2023-04-27T07:57:08.218Z,27.25
2023-04-27T07:59:35.082Z,28.98
2023-04-27T08:02:17.738Z,27.63
2023-04-27T08:04:45.524Z,30.52
2023-04-27T08:07:12.967Z,30.63
2023-04-27T08:09:40.019Z,20.88
2023-04-27T08:12:08.254Z,27.85
2023-04-27T08:14:35.745Z,29.42
2023-04-27T08:17:02.801Z,34.65
2023-04-27T08:19:29.688Z,26.35
2023-04-27T08:21:56.952Z,22.60
2023-04-27T08:24:24.004Z,22.55
2023-04-27T08:26:50.907Z,23.55
2023-04-27T08:29:27.685Z,30.45
2023-04-27T08:31:57.268Z,22.30
2023-04-27T08:34:24.252Z,21.35
2023-04-27T08:36:51.190Z,30.88
2023-04-27T08:39:18.567Z,21.98
2023-04-27T08:41:46.474Z,29.13
2023-04-27T08:44:13.631Z,21.10
2023-04-27T08:46:42.067Z,29.92
2023-04-27T08:49:09.983Z,26.92
2023-04-27T08:51:37.209Z,30.50
2023-04-27T08:54:04.598Z,21.80
2023-04-27T08:56:31.562Z,28.67
2023-04-27T08:59:00.822Z,21.05
2023-04-27T09:01:27.859Z,23.17
2023-04-27T09:04:02.279Z,19.98
2023-04-27T09:06:30.451Z,21.05
2023-04-27T09:08:57.374Z,25.05
2023-04-27T09:11:29.976Z,26.42
2023-04-27T09:13:58.572Z,23.45
2023-04-27T09:16:27.209Z,21.95
2023-04-27T09:18:54.638Z,23.85
2023-04-27T09:21:27.874Z,19.90
2023-04-27T09:23:55.715Z,18.77
2023-04-27T09:26:24.349Z,17.10
2023-04-27T09:28:52.617Z,21.20
2023-04-27T09:31:20.690Z,19.60
2023-04-27T09:33:56.128Z,18.77
2023-04-27T09:36:25.642Z,13.73
2023-04-27T09:38:53.211Z,15.85
2023-04-27T09:41:20.319Z,23.90
2023-04-27T09:43:47.665Z,47.65
2023-04-27T09:46:15.195Z,16.48
2023-04-27T09:48:42.736Z,16.35
2023-04-27T09:51:10.325Z,15.55
2023-04-27T09:53:43.849Z,24.50
2023-04-27T09:56:26.303Z,18.52
2023-04-27T09:59:10.411Z,19.38
2023-04-27T10:04:28.147Z,15.93
2023-04-27T10:07:00.400Z,20.55
2023-04-27T10:09:36.303Z,28.02
2023-04-27T10:12:17.639Z,19.38
2023-04-27T10:14:56.116Z,16.65
2023-04-27T10:17:30.390Z,17.88
2023-04-27T10:19:58.981Z,26.10
2023-04-27T10:22:39.367Z,17.45
2023-04-27T10:25:17.893Z,21.65
2023-04-27T10:27:49.736Z,23.63
2023-04-27T10:30:18.726Z,18.20
2023-04-27T10:32:56.173Z,26.13
2023-04-27T10:35:32.571Z,23.33
2023-04-27T10:38:06.540Z,22.98
2023-04-27T10:40:35.857Z,17.25
2023-04-27T10:43:10.551Z,19.05
2023-04-27T10:45:37.534Z,18.27
2023-04-27T10:48:05.341Z,15.10
2023-04-27T10:50:32.472Z,20.40
2023-04-27T10:53:04.845Z,21.63
2023-04-27T10:55:32.237Z,19.75
2023-04-27T10:58:01.973Z,21.17
2023-04-27T11:00:31.071Z,16.85
2023-04-27T11:03:09.488Z,19.15
2023-04-27T11:05:36.515Z,24.25
2023-04-27T11:08:07.720Z,20.40
2023-04-27T11:10:38.184Z,14.10
2023-04-27T11:13:11.757Z,26.35
2023-04-27T11:15:46.429Z,17.55
2023-04-27T11:18:13.517Z,21.55
2023-04-27T11:20:40.415Z,38.47
2023-04-27T11:23:07.871Z,17.65
2023-04-27T11:25:35.523Z,15.13
2023-04-27T11:28:02.480Z,16.85
2023-04-27T11:30:31.526Z,23.50
2023-04-27T11:32:58.583Z,16.40
2023-04-27T11:35:34.859Z,16.40
2023-04-27T11:38:01.706Z,17.90
2023-04-27T11:40:29.057Z,24.20
2023-04-27T11:42:59.924Z,22.50
2023-04-27T11:45:30.377Z,19.23
2023-04-27T11:48:03.914Z,18.08
2023-04-27T11:50:31.300Z,13.52
2023-04-27T11:53:01.177Z,20.02
2023-04-27T11:55:28.749Z,23.35
2023-04-27T11:57:58.065Z,27.05
2023-04-27T12:00:25.539Z,20.92
2023-04-27T12:02:52.890Z,14.70
2023-04-27T12:05:21.960Z,18.23
2023-04-27T12:07:48.886Z,26.55
2023-04-27T12:10:16.218Z,16.85
2023-04-27T12:12:43.145Z,22.92
2023-04-27T12:15:11.150Z,24.05
2023-04-27T12:17:39.631Z,16.73
2023-04-27T12:20:07.564Z,17.50
2023-04-27T12:22:35.904Z,20.48
2023-04-27T12:25:02.944Z,22.15
2023-04-27T12:27:29.909Z,23.13
2023-04-27T12:29:59.485Z,17.88
2023-04-27T12:32:27.817Z,15.75
2023-04-27T12:34:54.623Z,15.73
2023-04-27T12:37:22.183Z,14.95
2023-04-27T12:39:50.474Z,17.65
2023-04-27T12:42:19.874Z,19.35
2023-04-27T12:44:47.486Z,23.70
2023-04-27T12:47:27.824Z,14.32
2023-04-27T12:50:01.274Z,18.33
2023-04-27T12:52:28.859Z,15.88
2023-04-27T12:54:59.368Z,15.43
2023-04-27T12:57:26.723Z,18.30
2023-04-27T12:59:53.607Z,14.25
2023-04-27T13:02:20.772Z,16.92
2023-04-27T13:04:47.888Z,14.32
2023-04-27T13:07:14.955Z,23.67
2023-04-27T13:09:42.171Z,15.90
2023-04-27T13:12:10.582Z,13.60
2023-04-27T13:14:37.471Z,14.98
2023-04-27T13:17:04.340Z,15.60
2023-04-27T13:19:31.825Z,15.75
2023-04-27T13:21:58.662Z,17.77
2023-04-27T13:24:25.950Z,21.25
2023-04-27T13:26:52.854Z,26.98
2023-04-27T13:29:21.129Z,17.25
2023-04-27T13:31:48.259Z,18.58
2023-04-27T13:34:15.378Z,15.23
2023-04-27T13:36:42.519Z,18.73
2023-04-27T13:39:09.335Z,30.25
2023-04-27T13:41:36.218Z,19.23
2023-04-27T13:44:03.078Z,19.30
2023-04-27T13:46:31.446Z,18.33
2023-04-27T13:48:58.376Z,24.88
2023-04-27T13:51:26.694Z,21.17
2023-04-27T13:53:53.623Z,19.42
2023-04-27T13:56:20.982Z,16.45
2023-04-27T13:58:47.842Z,25.85
2023-04-27T14:01:14.701Z,20.27
2023-04-27T14:03:43.888Z,15.80
2023-04-27T14:06:11.059Z,21.25
2023-04-27T14:08:37.987Z,17.38
2023-04-27T14:11:06.043Z,17.55
2023-04-27T14:13:32.911Z,15.43
2023-04-27T14:15:59.905Z,21.65
2023-04-27T14:18:32.159Z,21.98
2023-04-27T14:21:01.107Z,23.20
2023-04-27T14:23:28.137Z,25.38
2023-04-27T14:25:54.982Z,22.40
2023-04-27T14:28:21.915Z,15.00
2023-04-27T14:30:48.768Z,14.18
2023-04-27T14:33:15.743Z,19.58
2023-04-27T14:35:42.701Z,21.73
2023-04-27T14:38:11.481Z,22.92
2023-04-27T14:40:38.341Z,22.38
2023-04-27T14:43:05.261Z,16.23
2023-04-27T14:45:43.609Z,23.02
2023-04-27T14:48:17.557Z,21.95
2023-04-27T14:50:44.460Z,35.40
2023-04-27T14:53:12.760Z,20.35
2023-04-27T14:55:41.151Z,20.92
2023-04-27T14:58:08.167Z,18.77
2023-04-27T15:00:35.058Z,24.15
2023-04-27T15:03:02.089Z,24.52
2023-04-27T15:05:29.126Z,21.48
2023-04-27T15:07:56.260Z,22.77
2023-04-27T15:10:24.589Z,20.00
2023-04-27T15:12:51.436Z,20.58
2023-04-27T15:15:18.566Z,18.05
2023-04-27T15:17:45.553Z,20.63
2023-04-27T15:20:14.194Z,20.40
2023-04-27T15:22:41.276Z,21.33
2023-04-27T15:25:09.064Z,19.63
2023-04-27T15:27:37.520Z,19.23
2023-04-27T15:30:05.459Z,17.70
2023-04-27T15:32:32.527Z,26.63
2023-04-27T15:34:59.790Z,20.52
2023-04-27T15:37:30.240Z,17.67
2023-04-27T15:39:57.511Z,19.75
2023-04-27T15:42:24.548Z,18.88
2023-04-27T15:44:52.886Z,19.52
2023-04-27T15:47:19.758Z,19.30
2023-04-27T15:49:56.625Z,23.30
2023-04-27T15:52:24.522Z,18.73
2023-04-27T15:54:51.418Z,23.50
2023-04-27T15:57:18.761Z,20.52
2023-04-27T15:59:45.987Z,20.63
2023-04-27T16:02:14.286Z,22.20
2023-04-27T16:04:41.250Z,30.05
2023-04-27T16:07:08.233Z,24.42
2023-04-27T16:09:35.416Z,40.17
2023-04-27T16:12:04.081Z,26.33
2023-04-27T16:14:31.049Z,22.13
2023-04-27T16:17:02.677Z,26.17
2023-04-27T16:19:31.177Z,19.48
2023-04-27T16:21:58.054Z,26.42
2023-04-27T16:24:25.517Z,22.98
2023-04-27T16:26:52.425Z,26.65
2023-04-27T16:29:19.297Z,23.77
2023-04-27T16:31:49.743Z,23.23
2023-04-27T16:34:16.744Z,26.65
2023-04-27T16:36:46.731Z,21.23
2023-04-27T16:39:14.285Z,33.05
2023-04-27T16:41:42.337Z,22.25
2023-04-27T16:44:09.253Z,20.55
2023-04-27T16:46:36.503Z,19.55
2023-04-27T16:49:04.181Z,24.85
2023-04-27T16:51:31.472Z,21.95
2023-04-27T16:53:59.960Z,24.63
2023-04-27T16:56:27.450Z,21.25
2023-04-27T16:58:54.440Z,26.15
2023-04-27T17:01:22.320Z,20.40
2023-04-27T17:03:49.340Z,27.92
2023-04-27T17:06:16.599Z,24.42
2023-04-27T17:08:43.496Z,22.58
2023-04-27T17:11:12.206Z,23.90
2023-04-27T17:13:39.076Z,28.75
2023-04-27T17:16:06.872Z,30.00
2023-04-27T17:18:34.087Z,22.83
2023-04-27T17:21:01.016Z,19.38
2023-04-27T17:23:27.863Z,19.48
2023-04-27T17:25:54.738Z,20.17
2023-04-27T17:28:23.024Z,23.33
2023-04-27T17:30:49.861Z,22.02
2023-04-27T17:33:17.026Z,27.70
2023-04-27T17:35:44.503Z,25.27
2023-04-27T17:38:11.949Z,30.45
2023-04-27T17:40:38.858Z,25.35
2023-04-27T17:43:05.707Z,26.05
2023-04-27T17:45:34.040Z,31.50
2023-04-27T17:48:01.171Z,22.38
2023-04-27T17:50:28.832Z,22.85
2023-04-27T17:52:55.741Z,21.40
2023-04-27T17:55:23.336Z,29.45
2023-04-27T17:57:50.522Z,28.58
2023-04-27T18:00:18.307Z,28.50
2023-04-27T18:02:48.563Z,36.00
2023-04-27T18:05:15.674Z,37.33
2023-04-27T18:07:42.697Z,23.73
2023-04-27T18:10:09.898Z,22.75
2023-04-27T18:12:36.917Z,23.27
2023-04-27T18:15:06.257Z,23.40
2023-04-27T18:17:34.717Z,24.80
2023-04-27T18:20:09.364Z,25.15
2023-04-27T18:22:38.582Z,23.77
2023-04-27T18:25:06.418Z,26.23
2023-04-27T18:27:33.273Z,19.52
2023-04-27T18:30:00.156Z,30.70
2023-04-27T18:32:27.067Z,22.67
2023-04-27T18:34:54.051Z,23.98
2023-04-27T18:37:22.475Z,25.75
2023-04-27T18:39:51.433Z,28.08
2023-04-27T18:42:20.212Z,21.77
2023-04-27T18:44:47.402Z,25.30
2023-04-27T18:47:16.278Z,31.90
2023-04-27T18:49:43.373Z,34.00
2023-04-27T18:52:11.592Z,24.10
2023-04-27T18:54:39.954Z,23.83
2023-04-27T18:57:06.931Z,28.23
2023-04-27T18:59:33.887Z,26.80
2023-04-27T19:02:01.002Z,26.38
2023-04-27T19:04:28.247Z,26.52
2023-04-27T19:06:55.458Z,19.05
2023-04-27T19:09:22.319Z,23.15
2023-04-27T19:11:59.966Z,22.52
2023-04-27T19:14:30.851Z,28.73
2023-04-27T19:16:57.931Z,21.98
2023-04-27T19:19:25.894Z,35.95
2023-04-27T19:21:52.938Z,27.98
2023-04-27T19:24:20.024Z,32.67
2023-04-27T19:26:48.422Z,27.88
2023-04-27T19:29:17.220Z,34.88
2023-04-27T19:31:44.629Z,26.95
2023-04-27T19:34:11.666Z,41.72
2023-04-27T19:36:38.576Z,29.63
2023-04-27T19:39:05.398Z,36.70
2023-04-27T19:41:32.382Z,27.13
2023-04-27T19:43:59.339Z,31.92
2023-04-27T19:46:27.619Z,29.15
2023-04-27T19:48:54.512Z,29.35
2023-04-27T19:51:21.492Z,32.33
2023-04-27T19:53:48.435Z,32.63
2023-04-27T19:56:15.260Z,27.77
2023-04-27T19:58:42.277Z,30.80
2023-04-27T20:01:10.342Z,31.27
2023-04-27T20:03:40.182Z,30.42
2023-04-27T20:06:07.284Z,32.08
2023-04-27T20:08:34.251Z,30.67
2023-04-27T20:11:01.199Z,34.08
2023-04-27T20:13:28.024Z,28.05
2023-04-27T20:15:55.069Z,28.85
2023-04-27T20:18:21.925Z,28.42
2023-04-27T20:20:50.259Z,34.40
2023-04-27T20:23:17.168Z,35.55
2023-04-27T20:25:44.170Z,30.50
2023-04-27T20:28:11.085Z,30.80
2023-04-27T20:30:38.074Z,32.17
2023-04-27T20:33:05.041Z,33.85
2023-04-27T20:35:31.950Z,35.35
2023-04-27T20:38:00.473Z,39.78
2023-04-27T20:40:27.485Z,32.58
2023-04-27T20:42:54.470Z,33.28
2023-04-27T20:45:21.717Z,31.33
2023-04-27T20:47:48.986Z,26.45
2023-04-27T20:50:16.074Z,33.42
2023-04-27T20:52:43.082Z,28.58
2023-04-27T20:55:11.310Z,34.17
2023-04-27T20:57:38.142Z,32.00
2023-04-27T21:00:06.243Z,30.38
2023-04-27T21:02:33.112Z,26.67
2023-04-27T21:05:00.239Z,33.10
2023-04-27T21:07:27.129Z,34.65
2023-04-27T21:09:53.968Z,45.70
2023-04-27T21:12:22.907Z,36.88
2023-04-27T21:14:49.856Z,32.83
2023-04-27T21:17:16.711Z,38.35
2023-04-27T21:19:43.571Z,30.40
2023-04-27T21:22:10.475Z,28.38
2023-04-27T21:24:37.325Z,33.92
2023-04-27T21:27:04.206Z,32.33
2023-04-27T21:29:34.755Z,32.58
2023-04-27T21:32:01.778Z,36.65
2023-04-27T21:34:29.144Z,25.75
2023-04-27T21:36:56.024Z,31.48
2023-04-27T21:39:22.916Z,24.30
2023-04-27T21:41:49.744Z,29.20
2023-04-27T21:44:16.924Z,28.33
2023-04-27T21:46:45.645Z,27.23
2023-04-27T21:49:12.510Z,28.17
2023-04-27T21:51:39.465Z,31.60
2023-04-27T21:54:06.334Z,33.67
2023-04-27T21:56:33.274Z,34.03
2023-04-27T21:59:00.390Z,31.58
2023-04-27T22:01:27.455Z,37.55
2023-04-27T22:03:56.358Z,30.35
2023-04-27T22:06:23.453Z,29.92
2023-04-27T22:08:50.325Z,30.38
2023-04-27T22:11:17.253Z,26.92
2023-04-27T22:13:44.280Z,40.53
2023-04-27T22:16:13.145Z,31.85
2023-04-27T22:18:40.668Z,31.88
2023-04-27T22:21:10.125Z,32.67
2023-04-27T22:23:36.968Z,31.77
2023-04-27T22:26:04.100Z,30.98
2023-04-27T22:28:30.958Z,31.52
2023-04-27T22:30:58.099Z,38.30
2023-04-27T22:33:24.881Z,39.50
2023-04-27T22:35:51.784Z,36.72
2023-04-27T22:38:20.074Z,36.72
2023-04-27T22:40:46.884Z,33.90
2023-04-27T22:43:13.736Z,40.80
2023-04-27T22:45:40.550Z,33.78
2023-04-27T22:48:07.969Z,45.97
2023-04-27T22:50:35.236Z,40.78
2023-04-27T22:53:02.137Z,44.50
2023-04-27T22:55:30.507Z,35.00
2023-04-27T22:57:57.333Z,39.92
2023-04-27T23:00:24.258Z,42.80
2023-04-27T23:02:51.294Z,46.40
2023-04-27T23:05:18.207Z,40.72
2023-04-27T23:07:46.321Z,44.30
2023-04-27T23:10:15.231Z,33.05
2023-04-27T23:12:43.677Z,35.90
2023-04-27T23:15:11.425Z,36.63
2023-04-27T23:17:38.457Z,39.67
2023-04-27T23:20:11.164Z,32.63
2023-04-27T23:22:44.064Z,35.13
2023-04-27T23:25:11.396Z,34.13
2023-04-27T23:27:38.198Z,28.40
2023-04-27T23:30:08.286Z,34.00
2023-04-27T23:32:36.724Z,32.47
2023-04-27T23:35:03.938Z,35.85
2023-04-27T23:37:30.781Z,30.38
2023-04-27T23:39:57.796Z,40.08
2023-04-27T23:42:24.711Z,35.00
2023-04-27T23:44:53.128Z,41.78
2023-04-27T23:47:21.406Z,31.75
2023-04-27T23:49:48.192Z,35.20
2023-04-27T23:52:14.994Z,32.22
2023-04-27T23:54:41.839Z,26.08
2023-04-27T23:57:08.739Z,35.40
2023-04-27T23:59:36.051Z,35.97
